sensor_id;sensor_type;location;lat;lon;timestamp;P1;durP1;ratioP1;P2;durP2;ratioP2
59308;SDS011;48433;53.016;-2.260;2023-07-20T00:01:06;10.77;;;6.80;;
59308;SDS011;48433;53.016;-2.260;2023-07-20T00:03:33;14.57;;;7.40;;
59308;SDS011;48433;53.016;-2.260;2023-07-20T00:06:01;12.40;;;7.03;;
59308;SDS011;48433;53.016;-2.260;2023-07-20T00:08:31;13.80;;;7.22;;
59308;SDS011;48433;53.016;-2.260;2023-07-20T00:10:59;10.20;;;7.13;;
59308;SDS011;48433;53.016;-2.260;2023-07-20T00:13:26;12.43;;;7.05;;
59308;SDS011;48433;53.016;-2.260;2023-07-20T00:15:54;10.75;;;6.90;;
59308;SDS011;48433;53.016;-2.260;2023-07-20T00:18:22;12.10;;;6.13;;
59308;SDS011;48433;53.016;-2.260;2023-07-20T00:20:49;10.98;;;6.63;;
59308;SDS011;48433;53.016;-2.260;2023-07-20T00:23:18;9.93;;;6.90;;
59308;SDS011;48433;53.016;-2.260;2023-07-20T00:25:48;10.05;;;6.82;;
59308;SDS011;48433;53.016;-2.260;2023-07-20T00:28:15;10.60;;;7.10;;
59308;SDS011;48433;53.016;-2.260;2023-07-20T00:30:43;11.77;;;6.65;;
59308;SDS011;48433;53.016;-2.260;2023-07-20T00:33:11;12.23;;;7.20;;
59308;SDS011;48433;53.016;-2.260;2023-07-20T00:35:40;9.00;;;6.47;;
59308;SDS011;48433;53.016;-2.260;2023-07-20T00:38:07;13.75;;;6.60;;
59308;SDS011;48433;53.016;-2.260;2023-07-20T00:40:35;10.50;;;6.35;;
59308;SDS011;48433;53.016;-2.260;2023-07-20T00:43:04;12.60;;;7.15;;
59308;SDS011;48433;53.016;-2.260;2023-07-20T00:45:33;12.07;;;6.50;;
59308;SDS011;48433;53.016;-2.260;2023-07-20T00:48:02;15.23;;;7.47;;
59308;SDS011;48433;53.016;-2.260;2023-07-20T00:50:31;12.05;;;7.22;;
59308;SDS011;48433;53.016;-2.260;2023-07-20T00:53:02;13.68;;;7.22;;
59308;SDS011;48433;53.016;-2.260;2023-07-20T00:55:32;12.20;;;7.10;;
59308;SDS011;48433;53.016;-2.260;2023-07-20T00:58:00;13.45;;;7.60;;
59308;SDS011;48433;53.016;-2.260;2023-07-20T01:00:28;9.73;;;6.65;;
59308;SDS011;48433;53.016;-2.260;2023-07-20T01:02:57;10.77;;;7.75;;
59308;SDS011;48433;53.016;-2.260;2023-07-20T01:05:32;11.98;;;7.57;;
59308;SDS011;48433;53.016;-2.260;2023-07-20T01:08:32;11.50;;;6.55;;
59308;SDS011;48433;53.016;-2.260;2023-07-20T01:11:10;12.82;;;7.32;;
59308;SDS011;48433;53.016;-2.260;2023-07-20T01:13:43;9.20;;;6.93;;
59308;SDS011;48433;53.016;-2.260;2023-07-20T01:16:11;9.45;;;5.65;;
59308;SDS011;48433;53.016;-2.260;2023-07-20T01:18:39;10.90;;;5.95;;
59308;SDS011;48433;53.016;-2.260;2023-07-20T01:21:08;11.15;;;6.80;;
59308;SDS011;48433;53.016;-2.260;2023-07-20T01:32:13;9.63;;;5.95;;
59308;SDS011;48433;53.016;-2.260;2023-07-20T01:34:44;10.70;;;6.10;;
59308;SDS011;48433;53.016;-2.260;2023-07-20T01:37:12;9.02;;;6.05;;
59308;SDS011;48433;53.016;-2.260;2023-07-20T01:39:41;10.95;;;5.75;;
59308;SDS011;48433;53.016;-2.260;2023-07-20T01:42:09;9.98;;;5.85;;
59308;SDS011;48433;53.016;-2.260;2023-07-20T01:44:37;8.68;;;5.05;;
59308;SDS011;48433;53.016;-2.260;2023-07-20T01:47:05;8.38;;;5.10;;
59308;SDS011;48433;53.016;-2.260;2023-07-20T01:49:33;10.52;;;5.63;;
59308;SDS011;48433;53.016;-2.260;2023-07-20T01:52:00;8.15;;;5.18;;
59308;SDS011;48433;53.016;-2.260;2023-07-20T01:54:30;10.85;;;6.20;;
59308;SDS011;48433;53.016;-2.260;2023-07-20T01:56:57;9.88;;;6.35;;
59308;SDS011;48433;53.016;-2.260;2023-07-20T01:59:25;11.05;;;6.60;;
59308;SDS011;48433;53.016;-2.260;2023-07-20T02:01:53;10.55;;;6.20;;
59308;SDS011;48433;53.016;-2.260;2023-07-20T02:04:21;11.95;;;6.63;;
59308;SDS011;48433;53.016;-2.260;2023-07-20T02:06:48;10.73;;;6.53;;
59308;SDS011;48433;53.016;-2.260;2023-07-20T02:09:16;9.70;;;5.53;;
59308;SDS011;48433;53.016;-2.260;2023-07-20T02:11:44;8.20;;;5.82;;
59308;SDS011;48433;53.016;-2.260;2023-07-20T02:14:11;8.98;;;5.32;;
59308;SDS011;48433;53.016;-2.260;2023-07-20T02:16:39;10.18;;;6.22;;
59308;SDS011;48433;53.016;-2.260;2023-07-20T02:19:07;10.07;;;5.70;;
59308;SDS011;48433;53.016;-2.260;2023-07-20T02:21:34;10.07;;;6.35;;
59308;SDS011;48433;53.016;-2.260;2023-07-20T02:24:02;9.13;;;5.45;;
59308;SDS011;48433;53.016;-2.260;2023-07-20T02:26:30;9.70;;;6.38;;
59308;SDS011;48433;53.016;-2.260;2023-07-20T02:28:57;11.60;;;5.85;;
59308;SDS011;48433;53.016;-2.260;2023-07-20T02:31:25;10.45;;;6.05;;
59308;SDS011;48433;53.016;-2.260;2023-07-20T02:33:53;9.38;;;6.57;;
59308;SDS011;48433;53.016;-2.260;2023-07-20T02:36:20;10.15;;;5.90;;
59308;SDS011;48433;53.016;-2.260;2023-07-20T02:38:48;11.95;;;6.75;;
59308;SDS011;48433;53.016;-2.260;2023-07-20T02:41:16;10.13;;;6.10;;
59308;SDS011;48433;53.016;-2.260;2023-07-20T02:43:44;11.63;;;6.20;;
59308;SDS011;48433;53.016;-2.260;2023-07-20T02:46:11;10.60;;;6.45;;
59308;SDS011;48433;53.016;-2.260;2023-07-20T02:48:39;10.05;;;6.10;;
59308;SDS011;48433;53.016;-2.260;2023-07-20T02:51:06;11.98;;;7.18;;
59308;SDS011;48433;53.016;-2.260;2023-07-20T02:53:34;9.93;;;6.40;;
59308;SDS011;48433;53.016;-2.260;2023-07-20T02:56:02;10.35;;;6.72;;
59308;SDS011;48433;53.016;-2.260;2023-07-20T02:58:30;9.98;;;7.03;;
59308;SDS011;48433;53.016;-2.260;2023-07-20T03:00:58;11.02;;;6.22;;
59308;SDS011;48433;53.016;-2.260;2023-07-20T03:03:25;13.73;;;6.43;;
59308;SDS011;48433;53.016;-2.260;2023-07-20T03:05:53;9.75;;;5.95;;
59308;SDS011;48433;53.016;-2.260;2023-07-20T03:08:22;12.55;;;6.35;;
59308;SDS011;48433;53.016;-2.260;2023-07-20T03:10:51;13.98;;;7.28;;
59308;SDS011;48433;53.016;-2.260;2023-07-20T03:13:18;10.73;;;6.80;;
59308;SDS011;48433;53.016;-2.260;2023-07-20T03:15:46;12.10;;;6.97;;
59308;SDS011;48433;53.016;-2.260;2023-07-20T03:18:14;11.05;;;6.78;;
59308;SDS011;48433;53.016;-2.260;2023-07-20T03:20:42;10.90;;;6.90;;
59308;SDS011;48433;53.016;-2.260;2023-07-20T03:23:09;10.55;;;6.82;;
59308;SDS011;48433;53.016;-2.260;2023-07-20T03:25:37;12.60;;;6.70;;
59308;SDS011;48433;53.016;-2.260;2023-07-20T03:28:07;9.70;;;6.82;;
59308;SDS011;48433;53.016;-2.260;2023-07-20T03:30:35;10.10;;;6.32;;
59308;SDS011;48433;53.016;-2.260;2023-07-20T03:33:03;10.15;;;6.70;;
59308;SDS011;48433;53.016;-2.260;2023-07-20T03:35:31;14.02;;;8.20;;
59308;SDS011;48433;53.016;-2.260;2023-07-20T03:37:58;11.50;;;6.72;;
59308;SDS011;48433;53.016;-2.260;2023-07-20T03:40:26;10.45;;;6.80;;
59308;SDS011;48433;53.016;-2.260;2023-07-20T03:42:54;9.27;;;6.47;;
59308;SDS011;48433;53.016;-2.260;2023-07-20T03:45:21;10.55;;;7.38;;
59308;SDS011;48433;53.016;-2.260;2023-07-20T03:47:51;9.60;;;6.78;;
59308;SDS011;48433;53.016;-2.260;2023-07-20T03:50:18;10.25;;;7.03;;
59308;SDS011;48433;53.016;-2.260;2023-07-20T03:52:46;10.30;;;6.80;;
59308;SDS011;48433;53.016;-2.260;2023-07-20T03:55:14;13.27;;;7.05;;
59308;SDS011;48433;53.016;-2.260;2023-07-20T03:57:42;12.65;;;7.30;;
59308;SDS011;48433;53.016;-2.260;2023-07-20T04:00:10;15.20;;;7.65;;
59308;SDS011;48433;53.016;-2.260;2023-07-20T04:02:39;10.90;;;7.65;;
59308;SDS011;48433;53.016;-2.260;2023-07-20T04:05:07;10.90;;;7.10;;
59308;SDS011;48433;53.016;-2.260;2023-07-20T04:07:35;10.63;;;6.40;;
59308;SDS011;48433;53.016;-2.260;2023-07-20T04:10:02;12.60;;;7.43;;
59308;SDS011;48433;53.016;-2.260;2023-07-20T04:12:30;12.38;;;7.40;;
59308;SDS011;48433;53.016;-2.260;2023-07-20T04:14:58;11.13;;;7.15;;
59308;SDS011;48433;53.016;-2.260;2023-07-20T04:17:27;11.90;;;7.15;;
59308;SDS011;48433;53.016;-2.260;2023-07-20T04:19:55;10.35;;;6.65;;
59308;SDS011;48433;53.016;-2.260;2023-07-20T04:22:22;11.38;;;6.72;;
59308;SDS011;48433;53.016;-2.260;2023-07-20T04:24:50;11.68;;;7.10;;
59308;SDS011;48433;53.016;-2.260;2023-07-20T04:27:18;10.82;;;6.78;;
59308;SDS011;48433;53.016;-2.260;2023-07-20T04:29:46;11.52;;;7.28;;
59308;SDS011;48433;53.016;-2.260;2023-07-20T04:32:13;13.88;;;7.65;;
59308;SDS011;48433;53.016;-2.260;2023-07-20T04:34:41;10.30;;;6.70;;
59308;SDS011;48433;53.016;-2.260;2023-07-20T04:37:09;12.43;;;7.47;;
59308;SDS011;48433;53.016;-2.260;2023-07-20T04:39:37;11.70;;;7.35;;
59308;SDS011;48433;53.016;-2.260;2023-07-20T04:42:09;12.68;;;7.80;;
59308;SDS011;48433;53.016;-2.260;2023-07-20T04:44:36;11.55;;;7.28;;
59308;SDS011;48433;53.016;-2.260;2023-07-20T04:47:05;9.60;;;6.93;;
59308;SDS011;48433;53.016;-2.260;2023-07-20T04:49:36;13.45;;;7.25;;
59308;SDS011;48433;53.016;-2.260;2023-07-20T04:52:04;11.70;;;7.50;;
59308;SDS011;48433;53.016;-2.260;2023-07-20T04:54:32;11.55;;;7.68;;
59308;SDS011;48433;53.016;-2.260;2023-07-20T04:56:59;13.63;;;7.13;;
59308;SDS011;48433;53.016;-2.260;2023-07-20T04:59:27;12.18;;;7.72;;
59308;SDS011;48433;53.016;-2.260;2023-07-20T05:01:55;11.02;;;7.70;;
59308;SDS011;48433;53.016;-2.260;2023-07-20T05:04:23;15.25;;;7.28;;
59308;SDS011;48433;53.016;-2.260;2023-07-20T05:06:51;14.40;;;7.10;;
59308;SDS011;48433;53.016;-2.260;2023-07-20T05:09:18;11.52;;;6.55;;
59308;SDS011;48433;53.016;-2.260;2023-07-20T05:11:46;11.23;;;7.03;;
59308;SDS011;48433;53.016;-2.260;2023-07-20T05:14:15;12.07;;;7.35;;
59308;SDS011;48433;53.016;-2.260;2023-07-20T05:16:43;11.77;;;7.10;;
59308;SDS011;48433;53.016;-2.260;2023-07-20T05:19:11;11.57;;;6.90;;
59308;SDS011;48433;53.016;-2.260;2023-07-20T05:21:39;12.20;;;7.53;;
59308;SDS011;48433;53.016;-2.260;2023-07-20T05:24:06;10.93;;;6.75;;
59308;SDS011;48433;53.016;-2.260;2023-07-20T05:26:34;10.85;;;7.22;;
59308;SDS011;48433;53.016;-2.260;2023-07-20T05:29:02;12.05;;;6.95;;
59308;SDS011;48433;53.016;-2.260;2023-07-20T05:31:30;11.55;;;6.40;;
59308;SDS011;48433;53.016;-2.260;2023-07-20T05:33:58;9.95;;;6.10;;
59308;SDS011;48433;53.016;-2.260;2023-07-20T05:36:26;9.73;;;6.45;;
59308;SDS011;48433;53.016;-2.260;2023-07-20T05:38:54;10.93;;;6.22;;
59308;SDS011;48433;53.016;-2.260;2023-07-20T05:41:21;10.18;;;6.05;;
59308;SDS011;48433;53.016;-2.260;2023-07-20T05:43:49;13.02;;;7.25;;
59308;SDS011;48433;53.016;-2.260;2023-07-20T05:46:17;10.80;;;6.50;;
59308;SDS011;48433;53.016;-2.260;2023-07-20T05:48:45;10.52;;;6.65;;
59308;SDS011;48433;53.016;-2.260;2023-07-20T05:51:12;11.23;;;6.25;;
59308;SDS011;48433;53.016;-2.260;2023-07-20T05:53:41;8.88;;;5.88;;
59308;SDS011;48433;53.016;-2.260;2023-07-20T05:56:08;9.93;;;6.35;;
59308;SDS011;48433;53.016;-2.260;2023-07-20T05:58:39;9.50;;;5.47;;
59308;SDS011;48433;53.016;-2.260;2023-07-20T06:01:06;9.32;;;6.00;;
59308;SDS011;48433;53.016;-2.260;2023-07-20T06:03:34;9.30;;;6.25;;
59308;SDS011;48433;53.016;-2.260;2023-07-20T06:06:02;9.98;;;6.13;;
59308;SDS011;48433;53.016;-2.260;2023-07-20T06:08:31;9.68;;;6.28;;
59308;SDS011;48433;53.016;-2.260;2023-07-20T06:10:59;10.40;;;6.22;;
59308;SDS011;48433;53.016;-2.260;2023-07-20T06:13:27;9.95;;;6.40;;
59308;SDS011;48433;53.016;-2.260;2023-07-20T06:15:54;10.35;;;6.07;;
59308;SDS011;48433;53.016;-2.260;2023-07-20T06:18:24;10.07;;;6.25;;
59308;SDS011;48433;53.016;-2.260;2023-07-20T06:20:52;12.57;;;5.97;;
59308;SDS011;48433;53.016;-2.260;2023-07-20T06:23:20;9.25;;;5.90;;
59308;SDS011;48433;53.016;-2.260;2023-07-20T06:25:48;10.80;;;6.15;;
59308;SDS011;48433;53.016;-2.260;2023-07-20T06:28:15;12.48;;;5.82;;
59308;SDS011;48433;53.016;-2.260;2023-07-20T06:30:43;11.15;;;5.82;;
59308;SDS011;48433;53.016;-2.260;2023-07-20T06:33:11;10.57;;;5.82;;
59308;SDS011;48433;53.016;-2.260;2023-07-20T06:35:41;11.82;;;6.03;;
59308;SDS011;48433;53.016;-2.260;2023-07-20T06:38:10;8.35;;;5.65;;
59308;SDS011;48433;53.016;-2.260;2023-07-20T06:40:40;8.55;;;5.97;;
59308;SDS011;48433;53.016;-2.260;2023-07-20T06:43:08;13.23;;;6.38;;
59308;SDS011;48433;53.016;-2.260;2023-07-20T06:45:38;10.40;;;5.78;;
59308;SDS011;48433;53.016;-2.260;2023-07-20T06:48:06;10.05;;;5.82;;
59308;SDS011;48433;53.016;-2.260;2023-07-20T06:50:34;12.02;;;6.03;;
59308;SDS011;48433;53.016;-2.260;2023-07-20T06:53:01;16.98;;;6.40;;
59308;SDS011;48433;53.016;-2.260;2023-07-20T06:55:31;10.32;;;6.57;;
59308;SDS011;48433;53.016;-2.260;2023-07-20T06:58:07;10.73;;;5.22;;
59308;SDS011;48433;53.016;-2.260;2023-07-20T07:00:34;11.18;;;5.95;;
59308;SDS011;48433;53.016;-2.260;2023-07-20T07:03:02;16.35;;;6.80;;
59308;SDS011;48433;53.016;-2.260;2023-07-20T07:05:30;10.50;;;6.13;;
59308;SDS011;48433;53.016;-2.260;2023-07-20T07:08:02;13.07;;;5.93;;
59308;SDS011;48433;53.016;-2.260;2023-07-20T07:10:29;14.82;;;5.97;;
59308;SDS011;48433;53.016;-2.260;2023-07-20T07:12:57;11.25;;;5.43;;
59308;SDS011;48433;53.016;-2.260;2023-07-20T07:15:25;9.00;;;5.75;;
59308;SDS011;48433;53.016;-2.260;2023-07-20T07:17:54;10.05;;;5.65;;
59308;SDS011;48433;53.016;-2.260;2023-07-20T07:20:22;15.45;;;6.35;;
59308;SDS011;48433;53.016;-2.260;2023-07-20T07:22:50;11.30;;;7.18;;
59308;SDS011;48433;53.016;-2.260;2023-07-20T07:25:19;11.23;;;6.32;;
59308;SDS011;48433;53.016;-2.260;2023-07-20T07:27:50;11.65;;;6.40;;
59308;SDS011;48433;53.016;-2.260;2023-07-20T07:30:19;11.48;;;6.55;;
59308;SDS011;48433;53.016;-2.260;2023-07-20T07:32:47;13.68;;;6.80;;
59308;SDS011;48433;53.016;-2.260;2023-07-20T07:35:14;12.63;;;6.97;;
59308;SDS011;48433;53.016;-2.260;2023-07-20T07:37:42;12.48;;;6.70;;
59308;SDS011;48433;53.016;-2.260;2023-07-20T07:40:30;13.30;;;6.63;;
59308;SDS011;48433;53.016;-2.260;2023-07-20T07:42:57;12.90;;;7.50;;
59308;SDS011;48433;53.016;-2.260;2023-07-20T07:45:25;14.68;;;7.38;;
59308;SDS011;48433;53.016;-2.260;2023-07-20T07:47:53;13.60;;;7.07;;
59308;SDS011;48433;53.016;-2.260;2023-07-20T07:50:22;13.40;;;6.78;;
59308;SDS011;48433;53.016;-2.260;2023-07-20T07:52:49;12.93;;;7.20;;
59308;SDS011;48433;53.016;-2.260;2023-07-20T07:55:17;13.63;;;6.95;;
59308;SDS011;48433;53.016;-2.260;2023-07-20T07:57:45;13.38;;;7.40;;
59308;SDS011;48433;53.016;-2.260;2023-07-20T08:00:14;15.63;;;7.18;;
59308;SDS011;48433;53.016;-2.260;2023-07-20T08:05:15;13.70;;;7.65;;
59308;SDS011;48433;53.016;-2.260;2023-07-20T08:07:43;13.00;;;7.07;;
59308;SDS011;48433;53.016;-2.260;2023-07-20T08:10:11;13.80;;;7.78;;
59308;SDS011;48433;53.016;-2.260;2023-07-20T08:12:38;13.05;;;7.47;;
59308;SDS011;48433;53.016;-2.260;2023-07-20T08:15:06;15.52;;;7.53;;
59308;SDS011;48433;53.016;-2.260;2023-07-20T08:17:34;16.98;;;8.60;;
59308;SDS011;48433;53.016;-2.260;2023-07-20T08:20:02;12.35;;;8.40;;
59308;SDS011;48433;53.016;-2.260;2023-07-20T08:22:30;16.25;;;8.13;;
59308;SDS011;48433;53.016;-2.260;2023-07-20T08:24:58;15.63;;;9.60;;
59308;SDS011;48433;53.016;-2.260;2023-07-20T08:27:25;17.10;;;9.63;;
59308;SDS011;48433;53.016;-2.260;2023-07-20T08:29:53;16.63;;;10.30;;
59308;SDS011;48433;53.016;-2.260;2023-07-20T08:32:20;24.58;;;11.88;;
59308;SDS011;48433;53.016;-2.260;2023-07-20T08:34:48;21.05;;;11.00;;
59308;SDS011;48433;53.016;-2.260;2023-07-20T08:37:16;18.85;;;11.35;;
59308;SDS011;48433;53.016;-2.260;2023-07-20T08:39:43;18.55;;;10.18;;
59308;SDS011;48433;53.016;-2.260;2023-07-20T08:42:11;17.85;;;10.13;;
59308;SDS011;48433;53.016;-2.260;2023-07-20T08:44:41;18.75;;;11.02;;
59308;SDS011;48433;53.016;-2.260;2023-07-20T08:47:11;19.23;;;10.75;;
59308;SDS011;48433;53.016;-2.260;2023-07-20T08:49:41;17.17;;;10.93;;
59308;SDS011;48433;53.016;-2.260;2023-07-20T08:52:09;22.13;;;10.25;;
59308;SDS011;48433;53.016;-2.260;2023-07-20T08:54:39;16.48;;;10.43;;
59308;SDS011;48433;53.016;-2.260;2023-07-20T08:57:07;24.55;;;10.50;;
59308;SDS011;48433;53.016;-2.260;2023-07-20T08:59:38;16.13;;;9.80;;
59308;SDS011;48433;53.016;-2.260;2023-07-20T09:02:06;13.27;;;9.07;;
59308;SDS011;48433;53.016;-2.260;2023-07-20T09:04:35;14.20;;;8.40;;
59308;SDS011;48433;53.016;-2.260;2023-07-20T09:07:03;16.75;;;9.60;;
59308;SDS011;48433;53.016;-2.260;2023-07-20T09:09:31;15.38;;;9.60;;
59308;SDS011;48433;53.016;-2.260;2023-07-20T09:11:59;13.43;;;9.30;;
59308;SDS011;48433;53.016;-2.260;2023-07-20T09:14:26;18.63;;;10.25;;
59308;SDS011;48433;53.016;-2.260;2023-07-20T09:16:58;18.92;;;9.88;;
59308;SDS011;48433;53.016;-2.260;2023-07-20T09:19:26;17.40;;;11.10;;
59308;SDS011;48433;53.016;-2.260;2023-07-20T09:21:53;15.68;;;10.48;;
59308;SDS011;48433;53.016;-2.260;2023-07-20T09:24:21;16.08;;;10.20;;
59308;SDS011;48433;53.016;-2.260;2023-07-20T09:26:49;16.42;;;9.93;;
59308;SDS011;48433;53.016;-2.260;2023-07-20T09:29:18;16.30;;;10.20;;
59308;SDS011;48433;53.016;-2.260;2023-07-20T09:32:02;14.70;;;9.05;;
59308;SDS011;48433;53.016;-2.260;2023-07-20T09:34:31;15.70;;;10.25;;
59308;SDS011;48433;53.016;-2.260;2023-07-20T09:37:02;19.45;;;10.50;;
59308;SDS011;48433;53.016;-2.260;2023-07-20T09:39:32;21.23;;;12.43;;
59308;SDS011;48433;53.016;-2.260;2023-07-20T09:42:00;17.90;;;10.55;;
59308;SDS011;48433;53.016;-2.260;2023-07-20T09:44:34;18.45;;;11.27;;
59308;SDS011;48433;53.016;-2.260;2023-07-20T09:47:05;21.15;;;11.63;;
59308;SDS011;48433;53.016;-2.260;2023-07-20T09:49:38;17.17;;;10.10;;
59308;SDS011;48433;53.016;-2.260;2023-07-20T09:52:12;21.08;;;11.15;;
59308;SDS011;48433;53.016;-2.260;2023-07-20T09:54:41;22.00;;;10.52;;
59308;SDS011;48433;53.016;-2.260;2023-07-20T09:57:12;15.77;;;8.73;;
59308;SDS011;48433;53.016;-2.260;2023-07-20T09:59:41;13.88;;;9.05;;
59308;SDS011;48433;53.016;-2.260;2023-07-20T10:02:25;18.05;;;9.77;;
59308;SDS011;48433;53.016;-2.260;2023-07-20T10:04:58;16.83;;;10.10;;
59308;SDS011;48433;53.016;-2.260;2023-07-20T10:07:31;16.20;;;9.68;;
59308;SDS011;48433;53.016;-2.260;2023-07-20T10:10:01;18.02;;;9.85;;
59308;SDS011;48433;53.016;-2.260;2023-07-20T10:12:30;15.35;;;8.15;;
59308;SDS011;48433;53.016;-2.260;2023-07-20T10:17:40;17.08;;;9.45;;
59308;SDS011;48433;53.016;-2.260;2023-07-20T10:20:17;13.93;;;8.90;;
59308;SDS011;48433;53.016;-2.260;2023-07-20T10:22:48;14.40;;;8.88;;
59308;SDS011;48433;53.016;-2.260;2023-07-20T10:27:48;20.27;;;9.75;;
59308;SDS011;48433;53.016;-2.260;2023-07-20T10:30:17;15.25;;;9.48;;
59308;SDS011;48433;53.016;-2.260;2023-07-20T10:32:46;15.65;;;9.77;;
59308;SDS011;48433;53.016;-2.260;2023-07-20T10:35:15;15.75;;;9.75;;
59308;SDS011;48433;53.016;-2.260;2023-07-20T10:43:06;17.13;;;9.40;;
59308;SDS011;48433;53.016;-2.260;2023-07-20T10:48:06;13.50;;;8.20;;
59308;SDS011;48433;53.016;-2.260;2023-07-20T10:50:42;14.18;;;9.35;;
59308;SDS011;48433;53.016;-2.260;2023-07-20T10:53:19;14.48;;;9.60;;
59308;SDS011;48433;53.016;-2.260;2023-07-20T10:55:46;14.95;;;10.07;;
59308;SDS011;48433;53.016;-2.260;2023-07-20T10:58:17;13.27;;;8.40;;
59308;SDS011;48433;53.016;-2.260;2023-07-20T11:01:00;12.20;;;8.05;;
59308;SDS011;48433;53.016;-2.260;2023-07-20T11:03:30;14.80;;;9.38;;
59308;SDS011;48433;53.016;-2.260;2023-07-20T11:11:38;12.88;;;8.30;;
59308;SDS011;48433;53.016;-2.260;2023-07-20T11:14:07;12.98;;;8.80;;
59308;SDS011;48433;53.016;-2.260;2023-07-20T11:19:20;15.70;;;8.68;;
59308;SDS011;48433;53.016;-2.260;2023-07-20T11:21:54;12.38;;;9.25;;
59308;SDS011;48433;53.016;-2.260;2023-07-20T11:24:30;12.43;;;8.43;;
59308;SDS011;48433;53.016;-2.260;2023-07-20T11:26:58;12.82;;;9.20;;
59308;SDS011;48433;53.016;-2.260;2023-07-20T11:29:28;12.20;;;8.63;;
59308;SDS011;48433;53.016;-2.260;2023-07-20T11:32:00;17.05;;;9.10;;
59308;SDS011;48433;53.016;-2.260;2023-07-20T11:34:32;14.10;;;9.27;;
59308;SDS011;48433;53.016;-2.260;2023-07-20T11:37:00;12.93;;;8.50;;
59308;SDS011;48433;53.016;-2.260;2023-07-20T11:39:32;13.00;;;8.73;;
59308;SDS011;48433;53.016;-2.260;2023-07-20T11:42:00;12.45;;;8.15;;
59308;SDS011;48433;53.016;-2.260;2023-07-20T11:44:28;13.43;;;8.23;;
59308;SDS011;48433;53.016;-2.260;2023-07-20T11:47:04;12.85;;;7.90;;
59308;SDS011;48433;53.016;-2.260;2023-07-20T11:49:38;13.45;;;8.50;;
59308;SDS011;48433;53.016;-2.260;2023-07-20T11:52:07;13.40;;;8.60;;
59308;SDS011;48433;53.016;-2.260;2023-07-20T11:54:37;12.00;;;8.05;;
59308;SDS011;48433;53.016;-2.260;2023-07-20T11:57:07;11.02;;;7.18;;
59308;SDS011;48433;53.016;-2.260;2023-07-20T12:00:00;10.15;;;7.45;;
59308;SDS011;48433;53.016;-2.260;2023-07-20T12:02:33;13.07;;;7.80;;
59308;SDS011;48433;53.016;-2.260;2023-07-20T12:05:01;12.57;;;7.90;;
59308;SDS011;48433;53.016;-2.260;2023-07-20T12:07:34;12.73;;;8.07;;
59308;SDS011;48433;53.016;-2.260;2023-07-20T12:10:08;12.65;;;8.50;;
59308;SDS011;48433;53.016;-2.260;2023-07-20T12:12:41;12.07;;;8.32;;
59308;SDS011;48433;53.016;-2.260;2023-07-20T12:15:17;11.93;;;7.93;;
59308;SDS011;48433;53.016;-2.260;2023-07-20T12:17:55;11.15;;;7.15;;
59308;SDS011;48433;53.016;-2.260;2023-07-20T12:20:25;12.52;;;7.63;;
59308;SDS011;48433;53.016;-2.260;2023-07-20T12:22:52;10.75;;;7.35;;
59308;SDS011;48433;53.016;-2.260;2023-07-20T12:25:22;10.60;;;7.50;;
59308;SDS011;48433;53.016;-2.260;2023-07-20T12:27:50;10.35;;;6.53;;
59308;SDS011;48433;53.016;-2.260;2023-07-20T12:30:17;11.60;;;7.15;;
59308;SDS011;48433;53.016;-2.260;2023-07-20T12:32:45;11.43;;;6.40;;
59308;SDS011;48433;53.016;-2.260;2023-07-20T12:35:13;9.48;;;6.53;;
59308;SDS011;48433;53.016;-2.260;2023-07-20T12:37:41;9.30;;;6.72;;
59308;SDS011;48433;53.016;-2.260;2023-07-20T12:40:09;10.32;;;6.55;;
59308;SDS011;48433;53.016;-2.260;2023-07-20T12:42:37;9.75;;;5.97;;
59308;SDS011;48433;53.016;-2.260;2023-07-20T12:45:05;11.48;;;6.75;;
59308;SDS011;48433;53.016;-2.260;2023-07-20T12:47:33;10.75;;;6.55;;
59308;SDS011;48433;53.016;-2.260;2023-07-20T12:50:01;11.43;;;6.90;;
59308;SDS011;48433;53.016;-2.260;2023-07-20T12:52:31;10.98;;;5.75;;
59308;SDS011;48433;53.016;-2.260;2023-07-20T12:54:58;9.95;;;6.65;;
59308;SDS011;48433;53.016;-2.260;2023-07-20T12:57:28;10.45;;;6.50;;
59308;SDS011;48433;53.016;-2.260;2023-07-20T12:59:56;9.88;;;6.05;;
59308;SDS011;48433;53.016;-2.260;2023-07-20T13:02:24;10.02;;;6.28;;
59308;SDS011;48433;53.016;-2.260;2023-07-20T13:04:52;9.18;;;5.75;;
59308;SDS011;48433;53.016;-2.260;2023-07-20T13:07:22;8.88;;;5.72;;
59308;SDS011;48433;53.016;-2.260;2023-07-20T13:10:03;9.93;;;6.18;;
59308;SDS011;48433;53.016;-2.260;2023-07-20T13:12:31;9.02;;;5.70;;
59308;SDS011;48433;53.016;-2.260;2023-07-20T13:15:04;11.10;;;6.45;;
59308;SDS011;48433;53.016;-2.260;2023-07-20T13:17:33;9.88;;;6.15;;
59308;SDS011;48433;53.016;-2.260;2023-07-20T13:20:02;10.55;;;6.18;;
59308;SDS011;48433;53.016;-2.260;2023-07-20T13:22:31;10.48;;;6.35;;
59308;SDS011;48433;53.016;-2.260;2023-07-20T13:24:59;10.20;;;6.90;;
59308;SDS011;48433;53.016;-2.260;2023-07-20T13:27:27;11.50;;;6.47;;
59308;SDS011;48433;53.016;-2.260;2023-07-20T13:29:55;10.55;;;6.72;;
59308;SDS011;48433;53.016;-2.260;2023-07-20T13:32:24;12.55;;;6.45;;
59308;SDS011;48433;53.016;-2.260;2023-07-20T13:34:53;10.85;;;6.93;;
59308;SDS011;48433;53.016;-2.260;2023-07-20T13:37:20;12.40;;;6.80;;
59308;SDS011;48433;53.016;-2.260;2023-07-20T13:39:48;10.45;;;6.85;;
59308;SDS011;48433;53.016;-2.260;2023-07-20T13:42:16;10.73;;;6.70;;
59308;SDS011;48433;53.016;-2.260;2023-07-20T13:44:45;9.90;;;6.32;;
59308;SDS011;48433;53.016;-2.260;2023-07-20T13:47:13;10.82;;;7.20;;
59308;SDS011;48433;53.016;-2.260;2023-07-20T13:49:44;9.57;;;6.47;;
59308;SDS011;48433;53.016;-2.260;2023-07-20T13:52:14;9.45;;;5.85;;
59308;SDS011;48433;53.016;-2.260;2023-07-20T13:54:45;8.43;;;5.18;;
59308;SDS011;48433;53.016;-2.260;2023-07-20T13:57:15;10.10;;;5.82;;
59308;SDS011;48433;53.016;-2.260;2023-07-20T13:59:43;9.30;;;6.45;;
59308;SDS011;48433;53.016;-2.260;2023-07-20T14:02:13;9.80;;;6.22;;
59308;SDS011;48433;53.016;-2.260;2023-07-20T14:04:45;11.00;;;6.38;;
59308;SDS011;48433;53.016;-2.260;2023-07-20T14:07:13;10.18;;;6.15;;
59308;SDS011;48433;53.016;-2.260;2023-07-20T14:09:43;10.63;;;6.43;;
59308;SDS011;48433;53.016;-2.260;2023-07-20T14:14:46;12.23;;;6.40;;
59308;SDS011;48433;53.016;-2.260;2023-07-20T14:17:13;9.10;;;6.13;;
59308;SDS011;48433;53.016;-2.260;2023-07-20T14:19:41;11.77;;;7.50;;
59308;SDS011;48433;53.016;-2.260;2023-07-20T14:22:09;12.65;;;6.55;;
59308;SDS011;48433;53.016;-2.260;2023-07-20T14:24:38;13.63;;;6.38;;
59308;SDS011;48433;53.016;-2.260;2023-07-20T14:27:06;10.90;;;6.32;;
59308;SDS011;48433;53.016;-2.260;2023-07-20T14:29:34;13.02;;;6.25;;
59308;SDS011;48433;53.016;-2.260;2023-07-20T14:32:03;9.27;;;6.18;;
59308;SDS011;48433;53.016;-2.260;2023-07-20T14:34:33;9.82;;;6.22;;
59308;SDS011;48433;53.016;-2.260;2023-07-20T14:37:05;10.35;;;6.32;;
59308;SDS011;48433;53.016;-2.260;2023-07-20T14:39:33;10.32;;;6.10;;
59308;SDS011;48433;53.016;-2.260;2023-07-20T14:42:01;9.75;;;5.90;;
59308;SDS011;48433;53.016;-2.260;2023-07-20T14:44:32;9.70;;;5.30;;
59308;SDS011;48433;53.016;-2.260;2023-07-20T14:47:00;10.52;;;5.90;;
59308;SDS011;48433;53.016;-2.260;2023-07-20T14:49:40;8.75;;;5.10;;
59308;SDS011;48433;53.016;-2.260;2023-07-20T14:52:08;10.15;;;5.18;;
59308;SDS011;48433;53.016;-2.260;2023-07-20T14:54:39;8.75;;;4.40;;
59308;SDS011;48433;53.016;-2.260;2023-07-20T14:57:06;9.13;;;4.35;;
59308;SDS011;48433;53.016;-2.260;2023-07-20T14:59:42;8.25;;;4.03;;
59308;SDS011;48433;53.016;-2.260;2023-07-20T15:02:11;13.88;;;6.18;;
59308;SDS011;48433;53.016;-2.260;2023-07-20T15:04:49;11.82;;;4.82;;
59308;SDS011;48433;53.016;-2.260;2023-07-20T15:07:18;9.05;;;4.93;;
59308;SDS011;48433;53.016;-2.260;2023-07-20T15:09:47;9.07;;;5.28;;